sensor_id;sensor_type;location;lat;lon;timestamp;pressure;altitude;pressure_sealevel;temperature;humidity
36192;BME280;22233;42.708;23.360;2023-06-14T00:00:11;95146.16;;;18.85;80.53
36192;BME280;22233;42.708;23.360;2023-06-14T00:02:39;95146.41;;;18.76;80.83
36192;BME280;22233;42.708;23.360;2023-06-14T00:05:07;95147.94;;;19.00;79.69
36192;BME280;22233;42.708;23.360;2023-06-14T00:07:38;95144.78;;;18.98;79.79
36192;BME280;22233;42.708;23.360;2023-06-14T00:10:08;95134.03;;;18.89;79.61
36192;BME280;22233;42.708;23.360;2023-06-14T00:12:33;95127.25;;;18.80;79.54
36192;BME280;22233;42.708;23.360;2023-06-14T00:14:59;95137.91;;;18.85;80.33
36192;BME280;22233;42.708;23.360;2023-06-14T00:17:27;95112.16;;;19.00;79.87
36192;BME280;22233;42.708;23.360;2023-06-14T00:19:58;95125.69;;;19.12;78.43
36192;BME280;22233;42.708;23.360;2023-06-14T00:22:24;95129.16;;;19.09;78.92
36192;BME280;22233;42.708;23.360;2023-06-14T00:24:53;95127.50;;;19.01;79.42
36192;BME280;22233;42.708;23.360;2023-06-14T00:27:18;95124.13;;;19.15;79.33
36192;BME280;22233;42.708;23.360;2023-06-14T00:29:44;95114.81;;;18.93;79.11
36192;BME280;22233;42.708;23.360;2023-06-14T00:32:09;95135.91;;;19.12;79.14
36192;BME280;22233;42.708;23.360;2023-06-14T00:34:35;95122.09;;;19.08;79.13
36192;BME280;22233;42.708;23.360;2023-06-14T00:37:01;95130.88;;;19.18;78.51
36192;BME280;22233;42.708;23.360;2023-06-14T00:39:26;95114.66;;;19.12;78.46
36192;BME280;22233;42.708;23.360;2023-06-14T00:41:51;95123.72;;;19.13;78.44
36192;BME280;22233;42.708;23.360;2023-06-14T00:44:17;95113.28;;;19.29;78.05
36192;BME280;22233;42.708;23.360;2023-06-14T00:46:44;95107.25;;;19.16;77.77
36192;BME280;22233;42.708;23.360;2023-06-14T00:49:10;95091.44;;;19.10;77.43
36192;BME280;22233;42.708;23.360;2023-06-14T00:51:37;95084.06;;;18.84;78.33
36192;BME280;22233;42.708;23.360;2023-06-14T00:54:02;95098.75;;;18.99;78.58
36192;BME280;22233;42.708;23.360;2023-06-14T00:56:28;95120.97;;;19.13;78.54
36192;BME280;22233;42.708;23.360;2023-06-14T00:58:55;95106.81;;;19.14;78.13
36192;BME280;22233;42.708;23.360;2023-06-14T01:01:21;95113.13;;;18.85;79.49
36192;BME280;22233;42.708;23.360;2023-06-14T01:03:46;95101.53;;;18.99;78.36
36192;BME280;22233;42.708;23.360;2023-06-14T01:09:10;95113.25;;;19.26;77.55
36192;BME280;22233;42.708;23.360;2023-06-14T01:12:13;95112.75;;;19.16;77.73
36192;BME280;22233;42.708;23.360;2023-06-14T01:14:41;95105.06;;;18.99;77.58
36192;BME280;22233;42.708;23.360;2023-06-14T01:17:08;95109.94;;;19.13;77.99
36192;BME280;22233;42.708;23.360;2023-06-14T01:19:41;95113.56;;;19.21;77.58
36192;BME280;22233;42.708;23.360;2023-06-14T01:22:08;95107.84;;;19.03;78.17
36192;BME280;22233;42.708;23.360;2023-06-14T01:24:33;95101.06;;;18.93;78.45
36192;BME280;22233;42.708;23.360;2023-06-14T01:27:00;95106.59;;;18.96;78.20
36192;BME280;22233;42.708;23.360;2023-06-14T01:29:27;95115.19;;;19.25;77.73
36192;BME280;22233;42.708;23.360;2023-06-14T01:31:58;95105.69;;;19.19;77.38
36192;BME280;22233;42.708;23.360;2023-06-14T01:34:24;95115.97;;;19.22;77.67
36192;BME280;22233;42.708;23.360;2023-06-14T01:36:50;95107.78;;;19.29;77.39
36192;BME280;22233;42.708;23.360;2023-06-14T01:39:17;95118.81;;;19.33;77.71
36192;BME280;22233;42.708;23.360;2023-06-14T01:41:44;95109.84;;;19.40;77.44
36192;BME280;22233;42.708;23.360;2023-06-14T01:44:10;95104.28;;;19.32;77.52
36192;BME280;22233;42.708;23.360;2023-06-14T01:46:37;95099.41;;;19.19;77.67
36192;BME280;22233;42.708;23.360;2023-06-14T01:49:03;95109.66;;;19.22;77.82
36192;BME280;22233;42.708;23.360;2023-06-14T01:51:28;95101.22;;;19.07;77.09
36192;BME280;22233;42.708;23.360;2023-06-14T01:53:54;95112.31;;;19.14;77.46
36192;BME280;22233;42.708;23.360;2023-06-14T01:56:20;95114.63;;;19.09;78.44
36192;BME280;22233;42.708;23.360;2023-06-14T01:58:46;95100.16;;;18.85;78.27
36192;BME280;22233;42.708;23.360;2023-06-14T02:01:13;95104.38;;;18.49;80.04
36192;BME280;22233;42.708;23.360;2023-06-14T02:03:41;95117.63;;;18.70;79.77
36192;BME280;22233;42.708;23.360;2023-06-14T02:06:07;95124.94;;;18.32;81.88
36192;BME280;22233;42.708;23.360;2023-06-14T02:08:33;95121.13;;;18.40;81.12
36192;BME280;22233;42.708;23.360;2023-06-14T02:10:58;95125.59;;;18.22;82.03
36192;BME280;22233;42.708;23.360;2023-06-14T02:13:23;95132.91;;;18.14;82.24
36192;BME280;22233;42.708;23.360;2023-06-14T02:15:49;95127.56;;;17.98;83.06
36192;BME280;22233;42.708;23.360;2023-06-14T02:18:20;95140.50;;;17.98;83.18
36192;BME280;22233;42.708;23.360;2023-06-14T02:20:46;95130.66;;;17.96;83.25
36192;BME280;22233;42.708;23.360;2023-06-14T02:23:11;95130.16;;;18.14;82.82
36192;BME280;22233;42.708;23.360;2023-06-14T02:25:37;95140.03;;;18.15;82.45
36192;BME280;22233;42.708;23.360;2023-06-14T02:28:04;95146.16;;;18.08;82.64
36192;BME280;22233;42.708;23.360;2023-06-14T02:30:29;95142.50;;;18.01;82.67
36192;BME280;22233;42.708;23.360;2023-06-14T02:32:56;95151.19;;;18.03;81.89
36192;BME280;22233;42.708;23.360;2023-06-14T02:35:22;95128.75;;;18.01;82.18
36192;BME280;22233;42.708;23.360;2023-06-14T02:37:49;95133.81;;;17.95;81.70
36192;BME280;22233;42.708;23.360;2023-06-14T02:40:16;95154.47;;;18.12;82.10
36192;BME280;22233;42.708;23.360;2023-06-14T02:42:41;95153.75;;;18.15;81.90
36192;BME280;22233;42.708;23.360;2023-06-14T02:45:07;95127.00;;;18.12;81.19
36192;BME280;22233;42.708;23.360;2023-06-14T02:47:33;95138.84;;;18.16;80.73
36192;BME280;22233;42.708;23.360;2023-06-14T02:49:58;95144.53;;;18.04;81.69
36192;BME280;22233;42.708;23.360;2023-06-14T02:52:24;95145.50;;;18.15;81.17
36192;BME280;22233;42.708;23.360;2023-06-14T02:54:50;95139.91;;;18.34;80.27
36192;BME280;22233;42.708;23.360;2023-06-14T02:57:16;95131.56;;;18.54;80.43
36192;BME280;22233;42.708;23.360;2023-06-14T02:59:41;95128.53;;;18.63;79.64
36192;BME280;22233;42.708;23.360;2023-06-14T03:02:06;95141.19;;;18.67;79.26
36192;BME280;22233;42.708;23.360;2023-06-14T03:04:32;95149.34;;;18.60;78.91
36192;BME280;22233;42.708;23.360;2023-06-14T03:07:02;95151.38;;;18.40;79.52
36192;BME280;22233;42.708;23.360;2023-06-14T03:09:37;95166.69;;;18.38;79.64
36192;BME280;22233;42.708;23.360;2023-06-14T03:12:03;95154.28;;;18.51;79.22
36192;BME280;22233;42.708;23.360;2023-06-14T03:14:29;95162.25;;;18.56;79.58
36192;BME280;22233;42.708;23.360;2023-06-14T03:16:56;95154.19;;;18.70;78.65
36192;BME280;22233;42.708;23.360;2023-06-14T03:19:22;95161.81;;;18.54;79.17
36192;BME280;22233;42.708;23.360;2023-06-14T03:21:48;95159.56;;;18.63;78.43
36192;BME280;22233;42.708;23.360;2023-06-14T03:24:14;95150.25;;;18.41;79.27
36192;BME280;22233;42.708;23.360;2023-06-14T03:26:41;95149.97;;;18.50;78.83
36192;BME280;22233;42.708;23.360;2023-06-14T03:29:07;95164.34;;;18.40;79.08
36192;BME280;22233;42.708;23.360;2023-06-14T03:31:34;95164.00;;;18.18;80.78
36192;BME280;22233;42.708;23.360;2023-06-14T03:34:00;95161.63;;;18.16;80.72
36192;BME280;22233;42.708;23.360;2023-06-14T03:36:25;95169.50;;;18.18;80.41
36192;BME280;22233;42.708;23.360;2023-06-14T03:38:51;95170.00;;;18.01;80.89
36192;BME280;22233;42.708;23.360;2023-06-14T03:41:16;95173.28;;;18.10;80.36
36192;BME280;22233;42.708;23.360;2023-06-14T03:43:41;95170.38;;;17.80;82.48
36192;BME280;22233;42.708;23.360;2023-06-14T03:46:07;95170.81;;;18.01;81.81
36192;BME280;22233;42.708;23.360;2023-06-14T03:48:32;95177.97;;;18.32;80.85
36192;BME280;22233;42.708;23.360;2023-06-14T03:50:58;95174.38;;;18.28;80.85
36192;BME280;22233;42.708;23.360;2023-06-14T03:53:23;95170.91;;;18.31;80.02
36192;BME280;22233;42.708;23.360;2023-06-14T03:55:49;95175.13;;;18.25;80.84
36192;BME280;22233;42.708;23.360;2023-06-14T03:58:17;95178.53;;;18.42;80.52
36192;BME280;22233;42.708;23.360;2023-06-14T04:00:43;95173.31;;;18.36;79.56
36192;BME280;22233;42.708;23.360;2023-06-14T04:03:08;95173.31;;;18.36;80.04
36192;BME280;22233;42.708;23.360;2023-06-14T04:05:33;95175.28;;;18.36;80.05
36192;BME280;22233;42.708;23.360;2023-06-14T04:07:59;95160.03;;;18.15;80.67
36192;BME280;22233;42.708;23.360;2023-06-14T04:10:26;95172.75;;;18.24;80.32
36192;BME280;22233;42.708;23.360;2023-06-14T04:12:51;95176.41;;;18.31;80.41
36192;BME280;22233;42.708;23.360;2023-06-14T04:15:17;95184.81;;;18.42;80.16
36192;BME280;22233;42.708;23.360;2023-06-14T04:17:42;95164.16;;;18.29;80.02
36192;BME280;22233;42.708;23.360;2023-06-14T04:20:08;95174.16;;;18.64;79.60
36192;BME280;22233;42.708;23.360;2023-06-14T04:22:35;95157.34;;;18.95;78.31
36192;BME280;22233;42.708;23.360;2023-06-14T04:25:01;95167.81;;;18.86;78.15
36192;BME280;22233;42.708;23.360;2023-06-14T04:27:27;95180.22;;;19.03;77.93
36192;BME280;22233;42.708;23.360;2023-06-14T04:29:54;95177.88;;;19.05;77.28
36192;BME280;22233;42.708;23.360;2023-06-14T04:32:28;95159.50;;;19.13;77.28
36192;BME280;22233;42.708;23.360;2023-06-14T04:34:57;95177.44;;;19.33;76.67
36192;BME280;22233;42.708;23.360;2023-06-14T04:37:24;95156.84;;;19.20;76.76
36192;BME280;22233;42.708;23.360;2023-06-14T04:39:51;95169.91;;;19.27;76.42
36192;BME280;22233;42.708;23.360;2023-06-14T04:42:17;95182.09;;;19.26;76.54
36192;BME280;22233;42.708;23.360;2023-06-14T04:44:45;95174.69;;;19.33;76.41
36192;BME280;22233;42.708;23.360;2023-06-14T04:47:12;95164.25;;;19.46;75.80
36192;BME280;22233;42.708;23.360;2023-06-14T04:49:39;95178.88;;;19.54;75.14
36192;BME280;22233;42.708;23.360;2023-06-14T04:52:06;95180.34;;;19.44;75.80
36192;BME280;22233;42.708;23.360;2023-06-14T04:54:33;95185.28;;;19.28;76.12
36192;BME280;22233;42.708;23.360;2023-06-14T04:56:59;95186.75;;;19.55;75.45
36192;BME280;22233;42.708;23.360;2023-06-14T04:59:24;95191.91;;;19.57;75.57
36192;BME280;22233;42.708;23.360;2023-06-14T05:01:50;95184.19;;;19.36;75.55
36192;BME280;22233;42.708;23.360;2023-06-14T05:04:17;95194.81;;;19.38;75.70
36192;BME280;22233;42.708;23.360;2023-06-14T05:06:43;95197.28;;;19.46;75.24
36192;BME280;22233;42.708;23.360;2023-06-14T05:09:15;95176.28;;;19.34;75.69
36192;BME280;22233;42.708;23.360;2023-06-14T05:11:42;95199.56;;;19.71;75.29
36192;BME280;22233;42.708;23.360;2023-06-14T05:14:10;95173.06;;;19.63;74.65
36192;BME280;22233;42.708;23.360;2023-06-14T05:16:35;95183.44;;;19.73;74.79
36192;BME280;22233;42.708;23.360;2023-06-14T05:19:02;95201.06;;;20.02;73.79
36192;BME280;22233;42.708;23.360;2023-06-14T05:21:28;95197.13;;;20.03;73.30
36192;BME280;22233;42.708;23.360;2023-06-14T05:23:53;95196.22;;;19.88;72.99
36192;BME280;22233;42.708;23.360;2023-06-14T05:26:19;95192.69;;;19.91;74.07
36192;BME280;22233;42.708;23.360;2023-06-14T05:28:44;95189.63;;;20.00;73.66
36192;BME280;22233;42.708;23.360;2023-06-14T05:31:10;95203.34;;;19.93;74.33
36192;BME280;22233;42.708;23.360;2023-06-14T05:33:35;95213.06;;;20.21;73.92
36192;BME280;22233;42.708;23.360;2023-06-14T05:36:01;95226.56;;;20.33;72.79
36192;BME280;22233;42.708;23.360;2023-06-14T05:38:26;95209.56;;;19.52;76.05
36192;BME280;22233;42.708;23.360;2023-06-14T05:40:52;95228.50;;;20.29;74.02
36192;BME280;22233;42.708;23.360;2023-06-14T05:43:18;95214.34;;;20.30;73.63
36192;BME280;22233;42.708;23.360;2023-06-14T05:45:44;95210.28;;;20.17;74.20
36192;BME280;22233;42.708;23.360;2023-06-14T05:48:09;95207.41;;;20.06;73.80
36192;BME280;22233;42.708;23.360;2023-06-14T05:50:35;95212.00;;;20.32;72.90
36192;BME280;22233;42.708;23.360;2023-06-14T05:53:00;95231.31;;;20.36;73.53
36192;BME280;22233;42.708;23.360;2023-06-14T05:55:25;95219.94;;;20.41;73.19
36192;BME280;22233;42.708;23.360;2023-06-14T05:57:51;95215.84;;;20.65;73.09
36192;BME280;22233;42.708;23.360;2023-06-14T06:00:17;95227.16;;;20.57;72.62
36192;BME280;22233;42.708;23.360;2023-06-14T06:02:43;95235.50;;;20.60;72.35
36192;BME280;22233;42.708;23.360;2023-06-14T06:05:09;95234.06;;;20.77;72.33
36192;BME280;22233;42.708;23.360;2023-06-14T06:07:36;95224.81;;;20.14;72.76
36192;BME280;22233;42.708;23.360;2023-06-14T06:10:02;95231.53;;;19.79;74.30
36192;BME280;22233;42.708;23.360;2023-06-14T06:12:27;95236.66;;;20.18;74.35
36192;BME280;22233;42.708;23.360;2023-06-14T06:14:53;95224.38;;;20.53;73.17
36192;BME280;22233;42.708;23.360;2023-06-14T06:17:18;95234.22;;;20.50;72.30
36192;BME280;22233;42.708;23.360;2023-06-14T06:19:44;95225.06;;;20.87;72.25
36192;BME280;22233;42.708;23.360;2023-06-14T06:22:09;95229.38;;;20.85;71.91
36192;BME280;22233;42.708;23.360;2023-06-14T06:24:35;95225.47;;;20.89;72.50
36192;BME280;22233;42.708;23.360;2023-06-14T06:27:00;95225.88;;;20.91;72.95
36192;BME280;22233;42.708;23.360;2023-06-14T06:29:26;95222.31;;;20.91;72.68
36192;BME280;22233;42.708;23.360;2023-06-14T06:31:51;95230.94;;;20.86;72.26
36192;BME280;22233;42.708;23.360;2023-06-14T06:34:16;95224.16;;;20.72;73.31
36192;BME280;22233;42.708;23.360;2023-06-14T06:36:42;95236.91;;;20.91;72.44
36192;BME280;22233;42.708;23.360;2023-06-14T06:39:07;95247.91;;;20.84;72.40
36192;BME280;22233;42.708;23.360;2023-06-14T06:41:37;95245.22;;;20.95;72.69
36192;BME280;22233;42.708;23.360;2023-06-14T06:44:05;95255.47;;;20.91;73.57
36192;BME280;22233;42.708;23.360;2023-06-14T06:46:32;95230.94;;;20.86;72.74
36192;BME280;22233;42.708;23.360;2023-06-14T06:48:57;95237.75;;;20.99;72.62
36192;BME280;22233;42.708;23.360;2023-06-14T06:51:22;95233.94;;;21.22;71.23
36192;BME280;22233;42.708;23.360;2023-06-14T06:53:54;95256.19;;;21.43;70.55
36192;BME280;22233;42.708;23.360;2023-06-14T06:56:21;95241.94;;;21.41;69.53
36192;BME280;22233;42.708;23.360;2023-06-14T06:58:49;95245.56;;;21.52;69.86
36192;BME280;22233;42.708;23.360;2023-06-14T07:01:14;95246.84;;;21.03;71.01
36192;BME280;22233;42.708;23.360;2023-06-14T07:03:39;95245.88;;;20.78;72.07
36192;BME280;22233;42.708;23.360;2023-06-14T07:06:05;95242.38;;;20.84;72.21
36192;BME280;22233;42.708;23.360;2023-06-14T07:08:31;95256.03;;;21.22;72.30
36192;BME280;22233;42.708;23.360;2023-06-14T07:10:56;95241.53;;;21.35;70.79
36192;BME280;22233;42.708;23.360;2023-06-14T07:13:21;95244.31;;;21.39;70.13
36192;BME280;22233;42.708;23.360;2023-06-14T07:15:47;95249.38;;;21.30;69.58
36192;BME280;22233;42.708;23.360;2023-06-14T07:18:13;95231.31;;;21.47;68.85
36192;BME280;22233;42.708;23.360;2023-06-14T07:20:38;95248.53;;;21.22;70.05
36192;BME280;22233;42.708;23.360;2023-06-14T07:23:04;95245.56;;;21.52;69.48
36192;BME280;22233;42.708;23.360;2023-06-14T07:25:29;95253.13;;;21.66;70.75
36192;BME280;22233;42.708;23.360;2023-06-14T07:27:55;95247.81;;;21.29;72.51
36192;BME280;22233;42.708;23.360;2023-06-14T07:30:20;95243.25;;;21.62;70.53
36192;BME280;22233;42.708;23.360;2023-06-14T07:32:46;95234.97;;;21.62;69.96
36192;BME280;22233;42.708;23.360;2023-06-14T07:35:11;95241.28;;;21.66;70.68
36192;BME280;22233;42.708;23.360;2023-06-14T07:37:37;95250.47;;;21.88;70.44
36192;BME280;22233;42.708;23.360;2023-06-14T07:40:02;95246.84;;;21.73;67.70
36192;BME280;22233;42.708;23.360;2023-06-14T07:42:34;95246.59;;;22.14;67.45
36192;BME280;22233;42.708;23.360;2023-06-14T07:45:00;95228.00;;;22.07;68.27
36192;BME280;22233;42.708;23.360;2023-06-14T07:47:26;95224.91;;;22.38;67.43
36192;BME280;22233;42.708;23.360;2023-06-14T07:49:51;95233.22;;;22.56;65.59
36192;BME280;22233;42.708;23.360;2023-06-14T07:52:16;95250.59;;;22.34;66.49
36192;BME280;22233;42.708;23.360;2023-06-14T07:54:42;95254.16;;;22.49;65.52
36192;BME280;22233;42.708;23.360;2023-06-14T07:57:08;95257.72;;;22.53;64.83
36192;BME280;22233;42.708;23.360;2023-06-14T07:59:34;95259.72;;;22.78;63.85
36192;BME280;22233;42.708;23.360;2023-06-14T08:01:59;95251.81;;;22.73;63.95
36192;BME280;22233;42.708;23.360;2023-06-14T08:04:25;95240.34;;;22.71;63.94
36192;BME280;22233;42.708;23.360;2023-06-14T08:06:50;95258.16;;;22.84;64.23
36192;BME280;22233;42.708;23.360;2023-06-14T08:09:16;95267.25;;;23.06;65.47
36192;BME280;22233;42.708;23.360;2023-06-14T08:11:41;95268.44;;;23.16;64.64
36192;BME280;22233;42.708;23.360;2023-06-14T08:14:08;95266.44;;;23.06;62.90
36192;BME280;22233;42.708;23.360;2023-06-14T08:16:33;95277.94;;;23.19;62.53
36192;BME280;22233;42.708;23.360;2023-06-14T08:18:59;95273.56;;;23.25;61.67
36192;BME280;22233;42.708;23.360;2023-06-14T08:21:24;95250.19;;;23.40;62.94
36192;BME280;22233;42.708;23.360;2023-06-14T08:23:57;95268.78;;;23.43;61.55
36192;BME280;22233;42.708;23.360;2023-06-14T08:26:22;95259.31;;;23.23;60.83
36192;BME280;22233;42.708;23.360;2023-06-14T08:28:48;95277.03;;;23.65;59.55
36192;BME280;22233;42.708;23.360;2023-06-14T08:31:13;95277.78;;;23.76;58.41
36192;BME280;22233;42.708;23.360;2023-06-14T08:33:39;95280.25;;;23.52;61.04
36192;BME280;22233;42.708;23.360;2023-06-14T08:36:08;95277.81;;;23.62;59.89
36192;BME280;22233;42.708;23.360;2023-06-14T08:38:33;95273.50;;;23.53;59.31
36192;BME280;22233;42.708;23.360;2023-06-14T08:41:00;95270.56;;;24.00;58.09
36192;BME280;22233;42.708;23.360;2023-06-14T08:43:26;95271.34;;;24.04;58.93
36192;BME280;22233;42.708;23.360;2023-06-14T08:46:00;95256.31;;;23.98;60.03
36192;BME280;22233;42.708;23.360;2023-06-14T08:48:27;95269.22;;;24.30;60.35
36192;BME280;22233;42.708;23.360;2023-06-14T08:51:01;95264.84;;;24.32;58.43
36192;BME280;22233;42.708;23.360;2023-06-14T08:53:30;95259.59;;;24.49;58.67
36192;BME280;22233;42.708;23.360;2023-06-14T08:55:57;95247.03;;;24.26;58.70
36192;BME280;22233;42.708;23.360;2023-06-14T08:58:27;95252.47;;;24.48;57.45
36192;BME280;22233;42.708;23.360;2023-06-14T09:00:55;95264.78;;;24.43;57.80
36192;BME280;22233;42.708;23.360;2023-06-14T09:03:21;95261.16;;;24.57;57.01
36192;BME280;22233;42.708;23.360;2023-06-14T09:05:47;95261.94;;;24.61;58.16
36192;BME280;22233;42.708;23.360;2023-06-14T09:08:12;95250.06;;;24.57;56.75
36192;BME280;22233;42.708;23.360;2023-06-14T09:10:39;95252.78;;;24.61;58.37
36192;BME280;22233;42.708;23.360;2023-06-14T09:13:05;95238.50;;;24.62;57.09
36192;BME280;22233;42.708;23.360;2023-06-14T09:15:31;95246.94;;;24.41;57.30
36192;BME280;22233;42.708;23.360;2023-06-14T09:17:57;95238.34;;;24.24;57.59
36192;BME280;22233;42.708;23.360;2023-06-14T09:20:24;95243.53;;;24.19;58.22
36192;BME280;22233;42.708;23.360;2023-06-14T09:22:50;95250.66;;;24.16;57.92
36192;BME280;22233;42.708;23.360;2023-06-14T09:25:15;95238.16;;;23.72;58.92
36192;BME280;22233;42.708;23.360;2023-06-14T09:27:41;95236.97;;;23.77;57.84
36192;BME280;22233;42.708;23.360;2023-06-14T09:30:09;95246.31;;;24.15;57.57
36192;BME280;22233;42.708;23.360;2023-06-14T09:32:39;95243.75;;;24.42;56.81
36192;BME280;22233;42.708;23.360;2023-06-14T09:35:08;95244.22;;;24.33;56.53
36192;BME280;22233;42.708;23.360;2023-06-14T09:37:34;95233.03;;;24.48;56.19
36192;BME280;22233;42.708;23.360;2023-06-14T09:40:00;95247.28;;;24.57;55.52
36192;BME280;22233;42.708;23.360;2023-06-14T09:42:26;95252.25;;;24.80;56.59
36192;BME280;22233;42.708;23.360;2023-06-14T09:44:54;95232.13;;;25.10;56.08
36192;BME280;22233;42.708;23.360;2023-06-14T09:47:20;95227.66;;;25.20;53.80
36192;BME280;22233;42.708;23.360;2023-06-14T09:49:47;95221.06;;;24.58;55.46
36192;BME280;22233;42.708;23.360;2023-06-14T09:52:20;95215.66;;;24.89;56.45
36192;BME280;22233;42.708;23.360;2023-06-14T09:54:47;95225.47;;;25.01;55.83
36192;BME280;22233;42.708;23.360;2023-06-14T09:57:22;95225.28;;;25.26;55.40
36192;BME280;22233;42.708;23.360;2023-06-14T09:59:48;95224.97;;;25.51;54.18
36192;BME280;22233;42.708;23.360;2023-06-14T10:02:28;95226.56;;;25.86;53.17
36192;BME280;22233;42.708;23.360;2023-06-14T10:05:02;95187.31;;;25.77;52.97
36192;BME280;22233;42.708;23.360;2023-06-14T10:07:32;95217.38;;;26.20;51.92
36192;BME280;22233;42.708;23.360;2023-06-14T10:10:00;95213.50;;;26.14;51.20
36192;BME280;22233;42.708;23.360;2023-06-14T10:12:26;95200.97;;;25.99;52.29
36192;BME280;22233;42.708;23.360;2023-06-14T10:14:53;95209.44;;;26.19;51.44
36192;BME280;22233;42.708;23.360;2023-06-14T10:17:40;95205.44;;;25.89;50.44
36192;BME280;22233;42.708;23.360;2023-06-14T10:20:30;95189.06;;;25.98;51.73
36192;BME280;22233;42.708;23.360;2023-06-14T10:23:03;95194.25;;;26.23;51.92
36192;BME280;22233;42.708;23.360;2023-06-14T10:25:31;95212.16;;;26.49;53.37
36192;BME280;22233;42.708;23.360;2023-06-14T10:31:08;95197.19;;;26.40;51.85
36192;BME280;22233;42.708;23.360;2023-06-14T10:33:41;95190.00;;;26.15;51.71
36192;BME280;22233;42.708;23.360;2023-06-14T10:36:24;95192.09;;;26.07;51.33
36192;BME280;22233;42.708;23.360;2023-06-14T10:39:04;95192.00;;;26.15;51.50
36192;BME280;22233;42.708;23.360;2023-06-14T10:41:34;95192.75;;;26.19;54.01
36192;BME280;22233;42.708;23.360;2023-06-14T10:46:37;95172.69;;;26.31;51.21
36192;BME280;22233;42.708;23.360;2023-06-14T10:49:03;95181.22;;;26.44;52.10
36192;BME280;22233;42.708;23.360;2023-06-14T10:51:30;95198.06;;;26.37;51.65
36192;BME280;22233;42.708;23.360;2023-06-14T10:53:56;95188.75;;;26.47;51.40
36192;BME280;22233;42.708;23.360;2023-06-14T10:56:26;95180.25;;;26.30;49.55
36192;BME280;22233;42.708;23.360;2023-06-14T10:58:52;95162.53;;;26.17;51.51
36192;BME280;22233;42.708;23.360;2023-06-14T11:01:31;95176.81;;;26.19;50.29
36192;BME280;22233;42.708;23.360;2023-06-14T11:04:07;95153.38;;;26.20;49.47
36192;BME280;22233;42.708;23.360;2023-06-14T11:11:51;95157.56;;;26.32;49.18
36192;BME280;22233;42.708;23.360;2023-06-14T11:14:18;95162.03;;;26.49;49.11
36192;BME280;22233;42.708;23.360;2023-06-14T11:16:48;95162.16;;;26.42;49.88
36192;BME280;22233;42.708;23.360;2023-06-14T11:19:14;95146.66;;;26.41;50.09
36192;BME280;22233;42.708;23.360;2023-06-14T11:21:40;95155.28;;;26.50;50.16
36192;BME280;22233;42.708;23.360;2023-06-14T11:24:10;95158.00;;;26.54;49.83
36192;BME280;22233;42.708;23.360;2023-06-14T11:26:37;95153.22;;;26.55;50.14
36192;BME280;22233;42.708;23.360;2023-06-14T11:29:03;95143.34;;;26.74;49.27
36192;BME280;22233;42.708;23.360;2023-06-14T11:31:28;95142.06;;;26.78;49.43
36192;BME280;22233;42.708;23.360;2023-06-14T11:33:58;95119.50;;;26.73;49.64
36192;BME280;22233;42.708;23.360;2023-06-14T11:36:30;95144.88;;;27.22;48.64
36192;BME280;22233;42.708;23.360;2023-06-14T11:39:06;95142.94;;;27.19;48.68
36192;BME280;22233;42.708;23.360;2023-06-14T11:41:39;95131.78;;;27.19;47.80
36192;BME280;22233;42.708;23.360;2023-06-14T11:44:05;95132.56;;;27.19;48.87
36192;BME280;22233;42.708;23.360;2023-06-14T11:46:31;95138.19;;;27.39;49.45
36192;BME280;22233;42.708;23.360;2023-06-14T11:48:56;95129.47;;;27.37;48.98
36192;BME280;22233;42.708;23.360;2023-06-14T11:51:22;95121.53;;;27.72;48.45
36192;BME280;22233;42.708;23.360;2023-06-14T11:53:47;95105.94;;;27.75;47.33
36192;BME280;22233;42.708;23.360;2023-06-14T11:56:13;95115.78;;;27.63;47.51
36192;BME280;22233;42.708;23.360;2023-06-14T11:58:39;95108.66;;;27.78;46.35
36192;BME280;22233;42.708;23.360;2023-06-14T12:01:05;95118.53;;;28.19;45.19
36192;BME280;22233;42.708;23.360;2023-06-14T12:03:31;95103.69;;;28.39;45.12
36192;BME280;22233;42.708;23.360;2023-06-14T12:06:06;95112.59;;;28.34;45.62
36192;BME280;22233;42.708;23.360;2023-06-14T12:08:36;95089.72;;;28.22;45.73
36192;BME280;22233;42.708;23.360;2023-06-14T12:11:11;95090.75;;;28.45;44.32
36192;BME280;22233;42.708;23.360;2023-06-14T12:13:40;95076.66;;;28.52;44.51
36192;BME280;22233;42.708;23.360;2023-06-14T12:16:07;95077.66;;;28.75;44.05
36192;BME280;22233;42.708;23.360;2023-06-14T12:18:38;95087.03;;;28.68;44.47
36192;BME280;22233;42.708;23.360;2023-06-14T12:21:08;95086.25;;;28.67;44.86
36192;BME280;22233;42.708;23.360;2023-06-14T12:23:42;95082.94;;;28.56;44.30
36192;BME280;22233;42.708;23.360;2023-06-14T12:26:07;95055.13;;;28.49;43.27
36192;BME280;22233;42.708;23.360;2023-06-14T12:28:33;95074.38;;;28.63;43.55
36192;BME280;22233;42.708;23.360;2023-06-14T12:30:58;95086.81;;;28.92;43.35
36192;BME280;22233;42.708;23.360;2023-06-14T12:33:24;95075.91;;;29.10;42.01
36192;BME280;22233;42.708;23.360;2023-06-14T12:35:50;95079.63;;;28.91;41.61
36192;BME280;22233;42.708;23.360;2023-06-14T12:38:15;95077.31;;;28.73;44.20
36192;BME280;22233;42.708;23.360;2023-06-14T12:40:41;95071.63;;;28.76;44.02
36192;BME280;22233;42.708;23.360;2023-06-14T12:43:07;95062.38;;;28.63;43.28
36192;BME280;22233;42.708;23.360;2023-06-14T12:45:33;95069.47;;;28.35;44.55
36192;BME280;22233;42.708;23.360;2023-06-14T12:47:58;95055.41;;;28.38;44.10
36192;BME280;22233;42.708;23.360;2023-06-14T12:50:23;95057.69;;;28.27;43.97
36192;BME280;22233;42.708;23.360;2023-06-14T12:52:49;95043.38;;;28.41;42.84
36192;BME280;22233;42.708;23.360;2023-06-14T12:55:14;95041.19;;;28.65;42.04
36192;BME280;22233;42.708;23.360;2023-06-14T12:57:40;95036.22;;;28.86;40.99
36192;BME280;22233;42.708;23.360;2023-06-14T13:00:05;95053.50;;;28.68;42.25
36192;BME280;22233;42.708;23.360;2023-06-14T13:02:32;95048.63;;;28.39;41.97